sensor_id;sensor_type;location;lat;lon;timestamp;P1;durP1;ratioP1;P2;durP2;ratioP2
20725;SDS011;10524;48.132;8.518;2024-01-11T00:00:16;86.25;;;45.08;;
20725;SDS011;10524;48.132;8.518;2024-01-11T00:02:42;78.55;;;41.83;;
20725;SDS011;10524;48.132;8.518;2024-01-11T00:05:08;77.25;;;40.83;;
20725;SDS011;10524;48.132;8.518;2024-01-11T00:07:34;72.45;;;38.85;;
20725;SDS011;10524;48.132;8.518;2024-01-11T00:10:01;68.57;;;37.65;;
20725;SDS011;10524;48.132;8.518;2024-01-11T00:12:27;79.63;;;41.88;;
20725;SDS011;10524;48.132;8.518;2024-01-11T00:14:53;77.15;;;41.28;;
20725;SDS011;10524;48.132;8.518;2024-01-11T00:17:19;68.60;;;37.95;;
20725;SDS011;10524;48.132;8.518;2024-01-11T00:19:44;72.82;;;38.85;;
20725;SDS011;10524;48.132;8.518;2024-01-11T00:22:10;69.38;;;37.97;;
20725;SDS011;10524;48.132;8.518;2024-01-11T00:24:36;69.80;;;36.70;;
20725;SDS011;10524;48.132;8.518;2024-01-11T00:27:02;73.10;;;40.40;;
20725;SDS011;10524;48.132;8.518;2024-01-11T00:29:27;78.45;;;42.45;;
20725;SDS011;10524;48.132;8.518;2024-01-11T00:31:53;74.22;;;40.85;;
20725;SDS011;10524;48.132;8.518;2024-01-11T00:34:21;77.35;;;41.08;;
20725;SDS011;10524;48.132;8.518;2024-01-11T00:36:46;72.72;;;39.88;;
20725;SDS011;10524;48.132;8.518;2024-01-11T00:39:13;80.68;;;41.45;;
20725;SDS011;10524;48.132;8.518;2024-01-11T00:41:38;72.55;;;39.67;;
20725;SDS011;10524;48.132;8.518;2024-01-11T00:44:05;81.28;;;42.85;;
20725;SDS011;10524;48.132;8.518;2024-01-11T00:46:32;73.68;;;39.45;;
20725;SDS011;10524;48.132;8.518;2024-01-11T00:48:59;72.22;;;38.67;;
20725;SDS011;10524;48.132;8.518;2024-01-11T00:51:25;65.55;;;36.35;;
20725;SDS011;10524;48.132;8.518;2024-01-11T00:53:50;71.45;;;39.10;;
20725;SDS011;10524;48.132;8.518;2024-01-11T00:56:19;69.18;;;37.63;;
20725;SDS011;10524;48.132;8.518;2024-01-11T00:58:47;64.72;;;35.33;;
20725;SDS011;10524;48.132;8.518;2024-01-11T01:01:12;71.55;;;39.35;;
20725;SDS011;10524;48.132;8.518;2024-01-11T01:03:38;68.88;;;37.53;;
20725;SDS011;10524;48.132;8.518;2024-01-11T01:06:05;65.60;;;36.40;;
20725;SDS011;10524;48.132;8.518;2024-01-11T01:08:31;65.07;;;35.20;;
20725;SDS011;10524;48.132;8.518;2024-01-11T01:10:57;64.35;;;35.58;;
20725;SDS011;10524;48.132;8.518;2024-01-11T01:13:22;69.35;;;36.88;;
20725;SDS011;10524;48.132;8.518;2024-01-11T01:15:48;63.60;;;36.28;;
20725;SDS011;10524;48.132;8.518;2024-01-11T01:18:14;72.85;;;39.95;;
20725;SDS011;10524;48.132;8.518;2024-01-11T01:20:40;79.13;;;39.80;;
20725;SDS011;10524;48.132;8.518;2024-01-11T01:23:06;73.32;;;37.92;;
20725;SDS011;10524;48.132;8.518;2024-01-11T01:25:32;63.72;;;36.13;;
20725;SDS011;10524;48.132;8.518;2024-01-11T01:27:58;67.47;;;36.55;;
20725;SDS011;10524;48.132;8.518;2024-01-11T01:30:24;72.93;;;38.25;;
20725;SDS011;10524;48.132;8.518;2024-01-11T01:32:50;70.60;;;37.80;;
20725;SDS011;10524;48.132;8.518;2024-01-11T01:35:16;66.50;;;35.50;;
20725;SDS011;10524;48.132;8.518;2024-01-11T01:37:42;64.18;;;35.53;;
20725;SDS011;10524;48.132;8.518;2024-01-11T01:40:08;70.53;;;38.70;;
20725;SDS011;10524;48.132;8.518;2024-01-11T01:42:34;69.68;;;37.50;;
20725;SDS011;10524;48.132;8.518;2024-01-11T01:44:59;74.28;;;38.67;;
20725;SDS011;10524;48.132;8.518;2024-01-11T01:47:26;68.38;;;36.85;;
20725;SDS011;10524;48.132;8.518;2024-01-11T01:49:52;64.80;;;36.92;;
20725;SDS011;10524;48.132;8.518;2024-01-11T01:52:19;63.42;;;35.70;;
20725;SDS011;10524;48.132;8.518;2024-01-11T01:54:46;72.88;;;39.55;;
20725;SDS011;10524;48.132;8.518;2024-01-11T01:57:13;66.32;;;36.60;;
20725;SDS011;10524;48.132;8.518;2024-01-11T01:59:41;63.30;;;35.20;;
20725;SDS011;10524;48.132;8.518;2024-01-11T02:02:08;60.58;;;34.50;;
20725;SDS011;10524;48.132;8.518;2024-01-11T02:04:35;63.22;;;34.05;;
20725;SDS011;10524;48.132;8.518;2024-01-11T02:07:01;59.35;;;32.83;;
20725;SDS011;10524;48.132;8.518;2024-01-11T02:09:27;57.85;;;32.50;;
20725;SDS011;10524;48.132;8.518;2024-01-11T02:11:53;61.60;;;34.00;;
20725;SDS011;10524;48.132;8.518;2024-01-11T02:14:19;60.80;;;33.70;;
20725;SDS011;10524;48.132;8.518;2024-01-11T02:16:46;56.72;;;32.78;;
20725;SDS011;10524;48.132;8.518;2024-01-11T02:19:12;55.83;;;31.08;;
20725;SDS011;10524;48.132;8.518;2024-01-11T02:21:40;58.00;;;31.02;;
20725;SDS011;10524;48.132;8.518;2024-01-11T02:24:08;59.40;;;32.90;;
20725;SDS011;10524;48.132;8.518;2024-01-11T02:26:35;60.70;;;34.50;;
20725;SDS011;10524;48.132;8.518;2024-01-11T02:29:01;60.88;;;33.08;;
20725;SDS011;10524;48.132;8.518;2024-01-11T02:31:27;61.92;;;34.67;;
20725;SDS011;10524;48.132;8.518;2024-01-11T02:33:54;70.22;;;36.22;;
20725;SDS011;10524;48.132;8.518;2024-01-11T02:36:21;67.50;;;35.80;;
20725;SDS011;10524;48.132;8.518;2024-01-11T02:38:47;61.65;;;34.63;;
20725;SDS011;10524;48.132;8.518;2024-01-11T02:41:14;65.75;;;34.83;;
20725;SDS011;10524;48.132;8.518;2024-01-11T02:43:46;67.82;;;36.22;;
20725;SDS011;10524;48.132;8.518;2024-01-11T02:46:13;70.15;;;36.75;;
20725;SDS011;10524;48.132;8.518;2024-01-11T02:48:40;61.92;;;35.35;;
20725;SDS011;10524;48.132;8.518;2024-01-11T02:51:06;58.60;;;32.97;;
20725;SDS011;10524;48.132;8.518;2024-01-11T02:53:31;67.97;;;36.83;;
20725;SDS011;10524;48.132;8.518;2024-01-11T02:55:59;65.35;;;36.65;;
20725;SDS011;10524;48.132;8.518;2024-01-11T02:58:26;70.18;;;37.47;;
20725;SDS011;10524;48.132;8.518;2024-01-11T03:00:52;71.05;;;37.95;;
20725;SDS011;10524;48.132;8.518;2024-01-11T03:03:18;69.57;;;37.47;;
20725;SDS011;10524;48.132;8.518;2024-01-11T03:05:43;64.75;;;36.42;;
20725;SDS011;10524;48.132;8.518;2024-01-11T03:08:09;64.63;;;35.05;;
20725;SDS011;10524;48.132;8.518;2024-01-11T03:10:37;66.10;;;35.88;;
20725;SDS011;10524;48.132;8.518;2024-01-11T03:13:04;61.13;;;35.20;;
20725;SDS011;10524;48.132;8.518;2024-01-11T03:15:30;64.50;;;34.55;;
20725;SDS011;10524;48.132;8.518;2024-01-11T03:17:57;62.80;;;35.22;;
20725;SDS011;10524;48.132;8.518;2024-01-11T03:20:22;59.38;;;32.47;;
20725;SDS011;10524;48.132;8.518;2024-01-11T03:22:50;64.43;;;35.20;;
20725;SDS011;10524;48.132;8.518;2024-01-11T03:25:17;59.33;;;32.85;;
20725;SDS011;10524;48.132;8.518;2024-01-11T03:27:43;60.20;;;33.13;;
20725;SDS011;10524;48.132;8.518;2024-01-11T03:30:10;62.33;;;34.05;;
20725;SDS011;10524;48.132;8.518;2024-01-11T03:32:36;57.60;;;32.65;;
20725;SDS011;10524;48.132;8.518;2024-01-11T03:35:02;60.25;;;33.50;;
20725;SDS011;10524;48.132;8.518;2024-01-11T03:37:28;60.70;;;32.50;;
20725;SDS011;10524;48.132;8.518;2024-01-11T03:39:53;65.00;;;34.78;;
20725;SDS011;10524;48.132;8.518;2024-01-11T03:42:19;63.78;;;35.60;;
20725;SDS011;10524;48.132;8.518;2024-01-11T03:44:45;63.45;;;35.58;;
20725;SDS011;10524;48.132;8.518;2024-01-11T03:47:10;58.85;;;33.58;;
20725;SDS011;10524;48.132;8.518;2024-01-11T03:49:36;61.92;;;34.53;;
20725;SDS011;10524;48.132;8.518;2024-01-11T03:52:02;62.38;;;34.13;;
20725;SDS011;10524;48.132;8.518;2024-01-11T03:54:28;60.70;;;33.88;;
20725;SDS011;10524;48.132;8.518;2024-01-11T03:56:53;61.72;;;33.70;;
20725;SDS011;10524;48.132;8.518;2024-01-11T03:59:19;62.90;;;33.90;;
20725;SDS011;10524;48.132;8.518;2024-01-11T04:01:45;59.97;;;34.17;;
20725;SDS011;10524;48.132;8.518;2024-01-11T04:04:10;58.63;;;32.78;;
20725;SDS011;10524;48.132;8.518;2024-01-11T04:06:37;61.47;;;34.28;;
20725;SDS011;10524;48.132;8.518;2024-01-11T04:09:03;67.43;;;36.63;;
20725;SDS011;10524;48.132;8.518;2024-01-11T04:11:29;64.20;;;35.97;;
20725;SDS011;10524;48.132;8.518;2024-01-11T04:13:55;60.15;;;34.70;;
20725;SDS011;10524;48.132;8.518;2024-01-11T04:16:21;63.75;;;35.58;;
20725;SDS011;10524;48.132;8.518;2024-01-11T04:18:47;61.00;;;35.10;;
20725;SDS011;10524;48.132;8.518;2024-01-11T04:21:22;56.97;;;32.97;;
20725;SDS011;10524;48.132;8.518;2024-01-11T04:23:49;61.83;;;33.45;;
20725;SDS011;10524;48.132;8.518;2024-01-11T04:26:16;60.17;;;33.95;;
20725;SDS011;10524;48.132;8.518;2024-01-11T04:28:45;60.72;;;34.13;;
20725;SDS011;10524;48.132;8.518;2024-01-11T04:31:12;60.10;;;34.22;;
20725;SDS011;10524;48.132;8.518;2024-01-11T04:33:40;61.45;;;34.67;;
20725;SDS011;10524;48.132;8.518;2024-01-11T04:36:09;57.72;;;34.10;;
20725;SDS011;10524;48.132;8.518;2024-01-11T04:38:36;60.83;;;34.15;;
20725;SDS011;10524;48.132;8.518;2024-01-11T04:41:08;66.80;;;37.00;;
20725;SDS011;10524;48.132;8.518;2024-01-11T04:43:44;64.25;;;34.60;;
20725;SDS011;10524;48.132;8.518;2024-01-11T04:48:41;75.70;;;43.40;;
20725;SDS011;10524;48.132;8.518;2024-01-11T04:51:08;69.15;;;38.67;;
20725;SDS011;10524;48.132;8.518;2024-01-11T04:53:40;67.20;;;39.83;;
20725;SDS011;10524;48.132;8.518;2024-01-11T04:56:07;67.50;;;39.53;;
20725;SDS011;10524;48.132;8.518;2024-01-11T04:58:34;74.30;;;40.78;;
20725;SDS011;10524;48.132;8.518;2024-01-11T05:01:00;68.25;;;39.35;;
20725;SDS011;10524;48.132;8.518;2024-01-11T05:03:27;68.80;;;39.05;;
20725;SDS011;10524;48.132;8.518;2024-01-11T05:05:53;67.38;;;38.47;;
20725;SDS011;10524;48.132;8.518;2024-01-11T05:08:19;68.07;;;38.72;;
20725;SDS011;10524;48.132;8.518;2024-01-11T05:10:44;64.32;;;36.67;;
20725;SDS011;10524;48.132;8.518;2024-01-11T05:13:10;64.00;;;35.45;;
20725;SDS011;10524;48.132;8.518;2024-01-11T05:15:36;61.35;;;34.20;;
20725;SDS011;10524;48.132;8.518;2024-01-11T05:18:01;63.58;;;35.97;;
20725;SDS011;10524;48.132;8.518;2024-01-11T05:20:27;63.30;;;35.47;;
20725;SDS011;10524;48.132;8.518;2024-01-11T05:22:53;60.17;;;34.05;;
20725;SDS011;10524;48.132;8.518;2024-01-11T05:25:19;63.35;;;35.28;;
20725;SDS011;10524;48.132;8.518;2024-01-11T05:27:45;64.30;;;35.10;;
20725;SDS011;10524;48.132;8.518;2024-01-11T05:30:11;61.83;;;34.85;;
20725;SDS011;10524;48.132;8.518;2024-01-11T05:32:37;70.28;;;38.90;;
20725;SDS011;10524;48.132;8.518;2024-01-11T05:35:03;73.20;;;40.83;;
20725;SDS011;10524;48.132;8.518;2024-01-11T05:37:29;63.58;;;36.22;;
20725;SDS011;10524;48.132;8.518;2024-01-11T05:39:55;67.00;;;37.58;;
20725;SDS011;10524;48.132;8.518;2024-01-11T05:42:22;67.40;;;35.47;;
20725;SDS011;10524;48.132;8.518;2024-01-11T05:44:48;64.22;;;35.47;;
20725;SDS011;10524;48.132;8.518;2024-01-11T05:47:14;60.97;;;34.28;;
20725;SDS011;10524;48.132;8.518;2024-01-11T05:49:40;64.47;;;36.70;;
20725;SDS011;10524;48.132;8.518;2024-01-11T05:52:06;62.05;;;34.60;;
20725;SDS011;10524;48.132;8.518;2024-01-11T05:54:32;57.83;;;34.22;;
20725;SDS011;10524;48.132;8.518;2024-01-11T05:56:57;60.63;;;33.75;;
20725;SDS011;10524;48.132;8.518;2024-01-11T05:59:24;59.42;;;33.33;;
20725;SDS011;10524;48.132;8.518;2024-01-11T06:01:50;61.97;;;34.50;;
20725;SDS011;10524;48.132;8.518;2024-01-11T06:04:16;63.05;;;35.92;;
20725;SDS011;10524;48.132;8.518;2024-01-11T06:06:42;66.72;;;36.55;;
20725;SDS011;10524;48.132;8.518;2024-01-11T06:09:08;64.55;;;36.63;;
20725;SDS011;10524;48.132;8.518;2024-01-11T06:11:35;63.80;;;35.22;;
20725;SDS011;10524;48.132;8.518;2024-01-11T06:14:00;66.43;;;35.42;;
20725;SDS011;10524;48.132;8.518;2024-01-11T06:16:27;61.40;;;34.33;;
20725;SDS011;10524;48.132;8.518;2024-01-11T06:18:53;65.53;;;35.38;;
20725;SDS011;10524;48.132;8.518;2024-01-11T06:21:19;61.83;;;34.63;;
20725;SDS011;10524;48.132;8.518;2024-01-11T06:23:45;69.10;;;38.35;;
20725;SDS011;10524;48.132;8.518;2024-01-11T06:26:11;80.88;;;44.92;;
20725;SDS011;10524;48.132;8.518;2024-01-11T06:28:37;89.03;;;48.42;;
20725;SDS011;10524;48.132;8.518;2024-01-11T06:31:03;88.32;;;48.97;;
20725;SDS011;10524;48.132;8.518;2024-01-11T06:33:28;122.07;;;61.13;;
20725;SDS011;10524;48.132;8.518;2024-01-11T06:35:54;161.15;;;76.78;;
20725;SDS011;10524;48.132;8.518;2024-01-11T06:38:21;147.57;;;69.93;;
20725;SDS011;10524;48.132;8.518;2024-01-11T06:40:48;125.75;;;60.25;;
20725;SDS011;10524;48.132;8.518;2024-01-11T06:43:14;108.13;;;52.55;;
20725;SDS011;10524;48.132;8.518;2024-01-11T06:45:40;112.25;;;55.95;;
20725;SDS011;10524;48.132;8.518;2024-01-11T06:48:09;105.60;;;54.65;;
20725;SDS011;10524;48.132;8.518;2024-01-11T06:50:35;105.35;;;54.35;;
20725;SDS011;10524;48.132;8.518;2024-01-11T06:53:01;88.68;;;46.80;;
20725;SDS011;10524;48.132;8.518;2024-01-11T06:55:27;96.75;;;50.42;;
20725;SDS011;10524;48.132;8.518;2024-01-11T06:57:53;89.60;;;47.05;;
20725;SDS011;10524;48.132;8.518;2024-01-11T07:00:18;90.88;;;48.88;;
20725;SDS011;10524;48.132;8.518;2024-01-11T07:02:44;64.93;;;37.90;;
20725;SDS011;10524;48.132;8.518;2024-01-11T07:05:10;67.00;;;38.00;;
20725;SDS011;10524;48.132;8.518;2024-01-11T07:07:37;71.10;;;38.17;;
20725;SDS011;10524;48.132;8.518;2024-01-11T07:10:03;76.68;;;41.20;;
20725;SDS011;10524;48.132;8.518;2024-01-11T07:12:30;69.50;;;37.97;;
20725;SDS011;10524;48.132;8.518;2024-01-11T07:14:57;67.65;;;35.80;;
20725;SDS011;10524;48.132;8.518;2024-01-11T07:17:22;65.72;;;37.67;;
20725;SDS011;10524;48.132;8.518;2024-01-11T07:19:48;65.40;;;36.30;;
20725;SDS011;10524;48.132;8.518;2024-01-11T07:22:14;68.22;;;37.45;;
20725;SDS011;10524;48.132;8.518;2024-01-11T07:24:40;66.05;;;36.40;;
20725;SDS011;10524;48.132;8.518;2024-01-11T07:27:06;70.43;;;37.80;;
20725;SDS011;10524;48.132;8.518;2024-01-11T07:29:35;66.47;;;37.35;;
20725;SDS011;10524;48.132;8.518;2024-01-11T07:32:01;70.13;;;37.25;;
20725;SDS011;10524;48.132;8.518;2024-01-11T07:34:27;70.65;;;38.53;;
20725;SDS011;10524;48.132;8.518;2024-01-11T07:36:53;77.35;;;41.92;;
20725;SDS011;10524;48.132;8.518;2024-01-11T07:39:19;79.63;;;42.85;;
20725;SDS011;10524;48.132;8.518;2024-01-11T07:41:46;87.55;;;44.33;;
20725;SDS011;10524;48.132;8.518;2024-01-11T07:44:12;69.93;;;38.60;;
20725;SDS011;10524;48.132;8.518;2024-01-11T07:46:37;82.57;;;44.42;;
20725;SDS011;10524;48.132;8.518;2024-01-11T07:49:03;77.85;;;42.63;;
20725;SDS011;10524;48.132;8.518;2024-01-11T07:51:30;76.55;;;40.80;;
20725;SDS011;10524;48.132;8.518;2024-01-11T07:53:56;77.53;;;42.35;;
20725;SDS011;10524;48.132;8.518;2024-01-11T07:56:21;83.82;;;46.75;;
20725;SDS011;10524;48.132;8.518;2024-01-11T07:58:47;121.35;;;64.72;;
20725;SDS011;10524;48.132;8.518;2024-01-11T08:01:14;117.82;;;64.88;;
20725;SDS011;10524;48.132;8.518;2024-01-11T08:03:41;134.20;;;71.97;;
20725;SDS011;10524;48.132;8.518;2024-01-11T08:06:07;179.38;;;94.03;;
20725;SDS011;10524;48.132;8.518;2024-01-11T08:08:33;164.35;;;85.70;;
20725;SDS011;10524;48.132;8.518;2024-01-11T08:10:59;117.10;;;62.65;;
20725;SDS011;10524;48.132;8.518;2024-01-11T08:13:25;136.07;;;74.00;;
20725;SDS011;10524;48.132;8.518;2024-01-11T08:15:51;115.03;;;62.58;;
20725;SDS011;10524;48.132;8.518;2024-01-11T08:18:18;102.28;;;57.40;;
20725;SDS011;10524;48.132;8.518;2024-01-11T08:20:44;96.72;;;54.40;;
20725;SDS011;10524;48.132;8.518;2024-01-11T08:23:10;93.05;;;52.60;;
20725;SDS011;10524;48.132;8.518;2024-01-11T08:25:36;98.85;;;55.20;;
20725;SDS011;10524;48.132;8.518;2024-01-11T08:28:02;99.68;;;57.22;;
20725;SDS011;10524;48.132;8.518;2024-01-11T08:30:28;94.97;;;53.42;;
20725;SDS011;10524;48.132;8.518;2024-01-11T08:32:54;94.53;;;50.42;;
20725;SDS011;10524;48.132;8.518;2024-01-11T08:35:20;93.13;;;52.67;;
20725;SDS011;10524;48.132;8.518;2024-01-11T08:37:46;87.55;;;50.88;;
20725;SDS011;10524;48.132;8.518;2024-01-11T08:40:13;93.60;;;51.45;;
20725;SDS011;10524;48.132;8.518;2024-01-11T08:42:38;86.68;;;50.40;;
20725;SDS011;10524;48.132;8.518;2024-01-11T08:45:06;95.30;;;52.40;;
20725;SDS011;10524;48.132;8.518;2024-01-11T08:47:35;95.07;;;53.75;;
20725;SDS011;10524;48.132;8.518;2024-01-11T08:50:03;93.18;;;52.63;;
20725;SDS011;10524;48.132;8.518;2024-01-11T08:52:31;88.82;;;53.95;;
20725;SDS011;10524;48.132;8.518;2024-01-11T08:54:58;85.45;;;49.55;;
20725;SDS011;10524;48.132;8.518;2024-01-11T08:57:24;84.88;;;49.10;;
20725;SDS011;10524;48.132;8.518;2024-01-11T08:59:50;98.18;;;56.20;;
20725;SDS011;10524;48.132;8.518;2024-01-11T09:02:15;95.82;;;55.15;;
20725;SDS011;10524;48.132;8.518;2024-01-11T09:04:41;105.35;;;57.70;;
20725;SDS011;10524;48.132;8.518;2024-01-11T09:07:07;110.90;;;58.50;;
20725;SDS011;10524;48.132;8.518;2024-01-11T09:09:32;110.30;;;58.05;;
20725;SDS011;10524;48.132;8.518;2024-01-11T09:11:58;102.90;;;51.15;;
20725;SDS011;10524;48.132;8.518;2024-01-11T09:14:24;112.55;;;55.08;;
20725;SDS011;10524;48.132;8.518;2024-01-11T09:16:49;122.03;;;58.15;;
20725;SDS011;10524;48.132;8.518;2024-01-11T09:19:15;120.93;;;57.03;;
20725;SDS011;10524;48.132;8.518;2024-01-11T09:21:41;182.98;;;79.40;;
20725;SDS011;10524;48.132;8.518;2024-01-11T09:24:07;93.43;;;47.22;;
20725;SDS011;10524;48.132;8.518;2024-01-11T09:26:33;123.80;;;56.40;;
20725;SDS011;10524;48.132;8.518;2024-01-11T09:29:00;103.90;;;51.53;;
20725;SDS011;10524;48.132;8.518;2024-01-11T09:31:26;121.72;;;58.10;;
20725;SDS011;10524;48.132;8.518;2024-01-11T09:33:52;90.15;;;45.58;;
20725;SDS011;10524;48.132;8.518;2024-01-11T09:36:17;92.10;;;45.55;;
20725;SDS011;10524;48.132;8.518;2024-01-11T09:38:44;94.15;;;46.70;;
20725;SDS011;10524;48.132;8.518;2024-01-11T09:41:10;96.45;;;49.05;;
20725;SDS011;10524;48.132;8.518;2024-01-11T09:43:38;102.88;;;48.40;;
20725;SDS011;10524;48.132;8.518;2024-01-11T09:46:06;109.90;;;51.97;;
20725;SDS011;10524;48.132;8.518;2024-01-11T09:48:32;107.05;;;51.38;;
20725;SDS011;10524;48.132;8.518;2024-01-11T09:51:03;109.57;;;53.60;;
20725;SDS011;10524;48.132;8.518;2024-01-11T09:53:35;107.30;;;53.33;;
20725;SDS011;10524;48.132;8.518;2024-01-11T09:56:05;98.72;;;50.80;;
20725;SDS011;10524;48.132;8.518;2024-01-11T09:58:34;103.28;;;51.28;;
20725;SDS011;10524;48.132;8.518;2024-01-11T10:01:05;99.78;;;50.80;;
20725;SDS011;10524;48.132;8.518;2024-01-11T10:03:34;103.43;;;51.85;;
20725;SDS011;10524;48.132;8.518;2024-01-11T10:06:00;104.72;;;52.78;;
20725;SDS011;10524;48.132;8.518;2024-01-11T10:08:27;102.30;;;52.20;;
20725;SDS011;10524;48.132;8.518;2024-01-11T10:10:54;101.60;;;52.35;;
20725;SDS011;10524;48.132;8.518;2024-01-11T10:13:25;94.70;;;49.28;;
20725;SDS011;10524;48.132;8.518;2024-01-11T10:16:10;91.10;;;47.15;;
20725;SDS011;10524;48.132;8.518;2024-01-11T10:18:40;90.07;;;46.92;;
20725;SDS011;10524;48.132;8.518;2024-01-11T10:21:09;79.60;;;43.28;;
20725;SDS011;10524;48.132;8.518;2024-01-11T10:23:35;85.22;;;44.75;;
20725;SDS011;10524;48.132;8.518;2024-01-11T10:26:01;88.03;;;46.25;;
20725;SDS011;10524;48.132;8.518;2024-01-11T10:28:27;87.05;;;43.92;;
20725;SDS011;10524;48.132;8.518;2024-01-11T10:30:53;80.13;;;42.95;;
20725;SDS011;10524;48.132;8.518;2024-01-11T10:33:20;74.25;;;41.95;;
20725;SDS011;10524;48.132;8.518;2024-01-11T10:35:47;88.72;;;46.65;;
20725;SDS011;10524;48.132;8.518;2024-01-11T10:38:16;84.28;;;42.03;;
20725;SDS011;10524;48.132;8.518;2024-01-11T10:40:43;77.95;;;42.22;;
20725;SDS011;10524;48.132;8.518;2024-01-11T10:43:10;77.78;;;41.97;;
20725;SDS011;10524;48.132;8.518;2024-01-11T10:45:40;74.25;;;40.90;;
20725;SDS011;10524;48.132;8.518;2024-01-11T10:48:07;74.95;;;41.33;;
20725;SDS011;10524;48.132;8.518;2024-01-11T10:50:44;68.32;;;37.97;;
20725;SDS011;10524;48.132;8.518;2024-01-11T10:56:05;73.32;;;39.08;;
20725;SDS011;10524;48.132;8.518;2024-01-11T10:58:34;64.75;;;36.10;;
20725;SDS011;10524;48.132;8.518;2024-01-11T11:01:01;63.20;;;35.35;;
20725;SDS011;10524;48.132;8.518;2024-01-11T11:03:29;62.60;;;35.85;;
20725;SDS011;10524;48.132;8.518;2024-01-11T11:05:57;60.90;;;34.70;;
20725;SDS011;10524;48.132;8.518;2024-01-11T11:08:24;66.00;;;37.25;;
20725;SDS011;10524;48.132;8.518;2024-01-11T11:10:55;60.17;;;35.25;;
20725;SDS011;10524;48.132;8.518;2024-01-11T11:13:22;64.20;;;35.35;;
20725;SDS011;10524;48.132;8.518;2024-01-11T11:15:48;61.60;;;35.20;;
20725;SDS011;10524;48.132;8.518;2024-01-11T11:18:15;57.65;;;32.50;;
20725;SDS011;10524;48.132;8.518;2024-01-11T11:20:41;60.58;;;33.88;;
20725;SDS011;10524;48.132;8.518;2024-01-11T11:23:08;56.92;;;32.88;;
20725;SDS011;10524;48.132;8.518;2024-01-11T11:25:37;54.67;;;32.10;;
20725;SDS011;10524;48.132;8.518;2024-01-11T11:28:04;56.97;;;32.55;;
20725;SDS011;10524;48.132;8.518;2024-01-11T11:30:31;60.67;;;31.08;;
20725;SDS011;10524;48.132;8.518;2024-01-11T11:32:58;58.75;;;29.52;;
20725;SDS011;10524;48.132;8.518;2024-01-11T11:35:42;59.67;;;31.40;;
20725;SDS011;10524;48.132;8.518;2024-01-11T11:38:08;57.13;;;32.60;;
20725;SDS011;10524;48.132;8.518;2024-01-11T11:40:41;61.80;;;33.20;;
20725;SDS011;10524;48.132;8.518;2024-01-11T11:43:10;60.63;;;34.35;;
20725;SDS011;10524;48.132;8.518;2024-01-11T11:45:36;57.28;;;33.92;;
20725;SDS011;10524;48.132;8.518;2024-01-11T11:51:28;55.83;;;31.13;;
20725;SDS011;10524;48.132;8.518;2024-01-11T11:56:14;56.55;;;32.30;;
20725;SDS011;10524;48.132;8.518;2024-01-11T11:58:42;59.20;;;32.95;;
20725;SDS011;10524;48.132;8.518;2024-01-11T12:01:09;58.65;;;33.17;;
20725;SDS011;10524;48.132;8.518;2024-01-11T12:03:35;59.67;;;33.72;;
20725;SDS011;10524;48.132;8.518;2024-01-11T12:06:03;61.53;;;34.55;;
20725;SDS011;10524;48.132;8.518;2024-01-11T12:08:30;57.83;;;32.92;;
20725;SDS011;10524;48.132;8.518;2024-01-11T12:10:57;63.50;;;34.10;;
20725;SDS011;10524;48.132;8.518;2024-01-11T12:13:23;64.28;;;33.97;;
20725;SDS011;10524;48.132;8.518;2024-01-11T12:15:49;59.90;;;35.42;;
20725;SDS011;10524;48.132;8.518;2024-01-11T12:18:15;60.65;;;33.90;;
20725;SDS011;10524;48.132;8.518;2024-01-11T12:20:41;56.60;;;33.65;;
20725;SDS011;10524;48.132;8.518;2024-01-11T12:23:08;59.17;;;34.72;;
20725;SDS011;10524;48.132;8.518;2024-01-11T12:25:34;62.90;;;35.72;;
20725;SDS011;10524;48.132;8.518;2024-01-11T12:28:01;63.83;;;36.42;;
20725;SDS011;10524;48.132;8.518;2024-01-11T12:30:27;66.40;;;35.88;;
20725;SDS011;10524;48.132;8.518;2024-01-11T12:32:55;68.53;;;37.92;;
20725;SDS011;10524;48.132;8.518;2024-01-11T12:35:21;65.30;;;38.35;;
20725;SDS011;10524;48.132;8.518;2024-01-11T12:38:01;71.10;;;38.70;;
20725;SDS011;10524;48.132;8.518;2024-01-11T12:40:34;75.30;;;40.13;;
20725;SDS011;10524;48.132;8.518;2024-01-11T12:43:02;70.15;;;41.17;;
20725;SDS011;10524;48.132;8.518;2024-01-11T12:45:29;71.80;;;39.50;;
20725;SDS011;10524;48.132;8.518;2024-01-11T12:47:57;71.07;;;39.45;;
20725;SDS011;10524;48.132;8.518;2024-01-11T12:50:25;73.22;;;41.38;;
20725;SDS011;10524;48.132;8.518;2024-01-11T12:53:04;72.68;;;39.65;;
20725;SDS011;10524;48.132;8.518;2024-01-11T12:55:30;73.38;;;40.22;;
20725;SDS011;10524;48.132;8.518;2024-01-11T12:58:08;75.13;;;40.90;;
20725;SDS011;10524;48.132;8.518;2024-01-11T13:00:37;73.00;;;41.70;;
20725;SDS011;10524;48.132;8.518;2024-01-11T13:03:06;68.63;;;39.47;;
20725;SDS011;10524;48.132;8.518;2024-01-11T13:05:34;65.25;;;36.50;;
20725;SDS011;10524;48.132;8.518;2024-01-11T13:08:01;66.43;;;38.95;;
20725;SDS011;10524;48.132;8.518;2024-01-11T13:10:29;63.92;;;37.83;;
20725;SDS011;10524;48.132;8.518;2024-01-11T13:12:55;61.97;;;37.15;;
20725;SDS011;10524;48.132;8.518;2024-01-11T13:15:23;64.63;;;38.88;;
20725;SDS011;10524;48.132;8.518;2024-01-11T13:17:49;62.40;;;37.08;;
20725;SDS011;10524;48.132;8.518;2024-01-11T13:20:15;66.95;;;37.08;;
20725;SDS011;10524;48.132;8.518;2024-01-11T13:22:41;67.00;;;38.95;;
20725;SDS011;10524;48.132;8.518;2024-01-11T13:25:07;69.22;;;40.03;;
20725;SDS011;10524;48.132;8.518;2024-01-11T13:27:32;67.55;;;37.92;;
20725;SDS011;10524;48.132;8.518;2024-01-11T13:29:58;64.95;;;38.08;;
20725;SDS011;10524;48.132;8.518;2024-01-11T13:32:24;62.85;;;36.28;;
20725;SDS011;10524;48.132;8.518;2024-01-11T13:34:50;64.43;;;38.55;;
20725;SDS011;10524;48.132;8.518;2024-01-11T13:37:18;62.47;;;37.83;;
20725;SDS011;10524;48.132;8.518;2024-01-11T13:39:45;67.70;;;39.83;;
20725;SDS011;10524;48.132;8.518;2024-01-11T13:42:10;67.25;;;38.10;;
20725;SDS011;10524;48.132;8.518;2024-01-11T13:44:38;68.38;;;38.78;;
20725;SDS011;10524;48.132;8.518;2024-01-11T13:47:04;72.43;;;38.20;;
20725;SDS011;10524;48.132;8.518;2024-01-11T13:49:30;66.72;;;38.90;;
20725;SDS011;10524;48.132;8.518;2024-01-11T13:51:56;73.03;;;38.55;;
20725;SDS011;10524;48.132;8.518;2024-01-11T13:54:22;70.43;;;39.42;;
20725;SDS011;10524;48.132;8.518;2024-01-11T13:56:48;74.47;;;41.17;;
20725;SDS011;10524;48.132;8.518;2024-01-11T13:59:14;73.72;;;40.40;;
20725;SDS011;10524;48.132;8.518;2024-01-11T14:01:40;71.78;;;40.25;;
20725;SDS011;10524;48.132;8.518;2024-01-11T14:04:06;73.65;;;39.78;;
20725;SDS011;10524;48.132;8.518;2024-01-11T14:06:32;74.65;;;41.00;;
20725;SDS011;10524;48.132;8.518;2024-01-11T14:08:57;73.15;;;41.45;;
20725;SDS011;10524;48.132;8.518;2024-01-11T14:11:23;78.68;;;41.92;;
20725;SDS011;10524;48.132;8.518;2024-01-11T14:13:52;77.32;;;41.67;;
20725;SDS011;10524;48.132;8.518;2024-01-11T14:16:17;75.38;;;42.58;;
20725;SDS011;10524;48.132;8.518;2024-01-11T14:18:43;71.50;;;40.83;;
20725;SDS011;10524;48.132;8.518;2024-01-11T14:21:09;78.65;;;42.97;;
20725;SDS011;10524;48.132;8.518;2024-01-11T14:23:36;82.32;;;44.10;;
20725;SDS011;10524;48.132;8.518;2024-01-11T14:26:03;79.13;;;43.13;;
20725;SDS011;10524;48.132;8.518;2024-01-11T14:28:29;78.95;;;43.22;;